Latest Weather Observations for Forbes

IDN60801

Issued at 6:33 pm EST Saturday 1 October 2016 (issued every 30 minutes, with the page automatically refreshed every 10 minutes)

About weather observations | Map of weather stations | Latest weather observations for NSW | Other Formats
Station Details ID: 065103 Name: FORBES AIRPORT AWS Lat: -33.36 Lon: 147.92 Height: 230.4 m
Data from the previous 72 hours. | See also: Recent months at Forbes
Date/Time
EST
Temp
°C
App
Temp
°C
Dew
Point
°C
Rel
Hum
%
Delta-T
°C
Wind Press
QNH
hPa
Press
MSL
hPa
Rain since
9am
mm
Dir  Spd
km/h
Gust
km/h
Spd
kts
Gust
kts
01/06:30pm 13.1 11.6 10.5 84 1.4 WNW 9 9 5 5 1011.3 1010.9 -
01/06:00pm 14.2 12.2 10.0 76 2.2 WNW 11 13 6 7 1010.9 1010.4 -
01/05:30pm 16.3 14.7 10.2 67 3.3 WNW 9 13 5 7 1010.8 1010.3 -
01/05:00pm 15.8 12.8 9.2 65 3.4 W 15 20 8 11 1010.8 1010.3 -
01/04:30pm 17.0 13.5 8.9 59 4.2 WNW 17 24 9 13 1010.6 1010.1 -
01/04:00pm 17.4 14.0 9.3 59 4.3 WNW 17 24 9 13 1010.3 1009.8 -
01/03:30pm 17.1 13.2 8.8 58 4.3 W 19 28 10 15 1010.2 1009.7 -
01/03:00pm 16.3 12.6 9.3 63 3.7 WNW 19 26 10 14 1010.2 1009.7 -
01/02:30pm 16.6 12.9 9.5 63 3.7 W 19 28 10 15 1010.2 1009.7 -
01/02:00pm 16.3 - 8.8 61 3.9 - - - - - 1010.3 1009.8 -
01/01:30pm 16.2 11.5 9.2 63 3.7 W 24 33 13 18 1010.6 1010.1 0.0
01/01:00pm 15.0 9.2 8.0 63 3.5 WNW 28 37 15 20 1010.5 1010.0 0.0
01/12:30pm 15.0 9.0 8.5 65 3.3 W 30 39 16 21 1010.5 1010.0 0.0
01/12:00pm 15.5 9.8 8.3 62 3.7 W 28 48 15 26 1010.5 1010.0 0.0
01/11:34am 15.1 9.0 8.1 63 3.6 W 30 48 16 26 1010.7 1010.2 0.0
01/11:30am 15.2 9.6 8.9 66 3.3 W 28 37 15 20 1010.8 1010.3 0.0
01/11:00am 14.8 8.1 8.1 64 3.4 WNW 33 48 18 26 1010.8 1010.3 0.0
01/10:32am 14.8 8.3 8.3 65 3.3 W 32 50 17 27 1010.8 1010.3 0.0
01/10:30am 14.5 8.3 8.0 65 3.3 W 30 46 16 25 1010.8 1010.3 0.0
01/10:29am 14.7 9.0 8.4 66 3.2 W 28 46 15 25 1010.8 1010.3 0.0
01/10:00am 13.9 8.4 9.1 73 2.5 WNW 28 43 15 23 1011.0 1010.5 0.0
01/09:30am 13.0 7.3 8.5 74 2.3 W 28 37 15 20 1010.9 1010.8 0.0
01/09:00am 12.6 7.5 9.1 79 1.8 W 26 33 14 18 1010.8 1010.7 3.6
01/08:30am 12.1 7.0 9.1 82 1.5 WNW 26 37 14 20 1010.5 1010.4 3.6
01/08:00am 11.7 7.6 10.1 90 0.8 WNW 22 30 12 16 1010.1 1010.0 3.6
01/07:30am 11.3 6.8 10.0 92 0.7 NW 24 33 13 18 1009.7 1009.6 3.6
01/07:00am 11.3 7.2 10.2 93 0.6 NW 22 32 12 17 1009.3 1009.2 3.6
01/06:30am 11.0 7.3 10.1 94 0.5 NW 20 28 11 15 1008.6 1008.5 3.6
01/06:00am 10.8 7.7 10.3 97 0.3 NW 17 22 9 12 1008.2 1008.1 3.6
01/05:30am 10.7 7.6 10.2 97 0.3 NW 17 22 9 12 1007.9 1007.8 3.6
01/05:00am 10.8 7.7 10.2 96 0.3 NW 17 22 9 12 1007.2 1007.1 3.6
01/04:30am 11.0 7.3 10.2 95 0.4 NW 20 30 11 16 1006.6 1006.5 3.6
01/04:00am 10.9 7.2 10.3 96 0.3 NW 20 24 11 13 1006.3 1006.2 3.6
01/03:30am 10.5 6.9 10.0 97 0.3 NW 19 24 10 13 1005.9 1005.8 3.6
01/03:00am 10.3 6.7 9.8 97 0.3 NW 19 24 10 13 1005.7 1005.6 3.6
01/02:30am 10.2 6.3 9.6 96 0.3 NW 20 28 11 15 1005.6 1005.5 3.6
01/02:00am 10.6 6.8 9.7 94 0.5 NW 20 28 11 15 1005.4 1005.3 3.6
01/01:30am 11.1 7.9 9.9 92 0.6 NW 17 22 9 12 1005.6 1005.5 3.6
01/01:00am 11.0 7.3 10.1 94 0.5 NNW 20 28 11 15 1005.5 1005.4 3.6
01/12:30am 10.9 7.7 10.1 95 0.4 NW 17 22 9 12 1005.4 1005.3 3.6
01/12:00am 11.1 7.0 10.0 93 0.6 NW 22 32 12 17 1005.4 1005.3 3.6
 
Date/Time
EST
Temp
°C
App
Temp
°C
Dew
Point
°C
Rel
Hum
%
Delta-T
°C
Wind Press
QNH
hPa
Press
MSL
hPa
Rain since
9am
mm
Dir  Spd
km/h
Gust
km/h
Spd
kts
Gust
kts
30/11:30pm 11.3 7.6 10.2 93 0.6 NW 20 26 11 14 1005.3 1005.2 3.6
30/11:00pm 11.6 7.8 9.7 88 1.0 NW 20 28 11 15 1005.1 1005.0 3.4
30/10:30pm 12.0 7.3 9.2 83 1.4 WNW 24 35 13 19 1005.1 1005.0 3.4
30/10:00pm 11.9 7.1 8.9 82 1.5 WNW 24 39 13 21 1004.8 1004.6 3.4
30/09:30pm 12.8 7.8 8.1 73 2.3 NW 24 32 13 17 1004.3 1004.1 3.2
30/09:00pm 12.7 7.7 8.2 74 2.3 NW 24 32 13 17 1003.9 1003.8 3.2
30/08:30pm 13.1 7.7 8.2 72 2.5 NW 26 35 14 19 1003.8 1003.7 3.2
30/08:00pm 11.9 8.9 9.1 83 1.4 N 15 20 8 11 1003.5 1003.4 3.2
30/07:30pm 12.5 9.1 9.3 81 1.6 NNW 17 20 9 11 1003.3 1003.2 3.2
30/07:00pm 12.4 9.4 9.2 81 1.6 NNW 15 19 8 10 1003.0 1002.9 3.2
30/06:30pm 12.2 9.6 9.2 82 1.5 NW 13 17 7 9 1002.8 1002.7 3.2
30/06:00pm 12.3 8.9 9.3 82 1.5 NW 17 24 9 13 1002.5 1002.4 3.2
30/05:30pm 12.6 9.1 8.9 78 1.9 WNW 17 24 9 13 1002.3 1002.2 3.2
30/05:00pm 13.3 11.5 9.4 77 2.0 W 9 20 5 11 1001.9 1001.8 3.2
30/04:30pm 12.8 10.3 9.6 81 1.6 W 13 17 7 9 1001.8 1001.7 3.2
30/04:00pm 11.3 7.2 8.5 83 1.4 WNW 20 28 11 15 1001.5 1001.4 3.2
30/03:36pm 11.0 3.9 7.9 81 1.5 WNW 35 72 19 39 1001.8 1001.7 2.2
30/03:34pm 12.8 6.4 8.7 76 2.1 WNW 32 54 17 29 1001.4 1001.3 2.0
30/03:30pm 13.0 6.7 8.9 76 2.1 WNW 32 44 17 24 1001.3 1001.1 2.0
30/03:00pm 13.5 6.8 8.1 70 2.7 W 33 56 18 30 1000.9 1000.7 2.0
30/02:51pm 14.0 7.7 9.6 75 2.3 WNW 33 56 18 30 1000.8 1000.6 2.0
30/02:30pm 12.9 7.5 10.8 87 1.1 WNW 30 43 16 23 1000.8 1000.6 2.0
30/02:12pm 11.8 4.9 8.8 82 1.5 WNW 35 54 19 29 1000.5 1000.3 1.0
30/02:00pm 12.8 7.1 8.3 74 2.3 WNW 28 43 15 23 1000.2 1000.0 0.8
30/01:32pm 13.0 6.7 9.1 77 2.0 WNW 32 50 17 27 1000.3 1000.1 0.8
30/01:30pm 12.6 6.7 8.9 78 1.9 WNW 30 44 16 24 1000.3 1000.1 0.8
30/01:02pm 12.1 5.5 8.4 78 1.9 NW 33 52 18 28 1000.1 999.9 0.8
30/01:00pm 12.7 6.3 9.2 79 1.8 NW 33 46 18 25 1000.2 1000.0 0.8
30/12:35pm 11.0 4.2 9.1 88 1.0 NW 35 54 19 29 1000.0 999.8 0.8
30/12:30pm 11.6 5.1 9.0 84 1.3 NW 33 44 18 24 1000.1 999.9 0.8
30/12:00pm 10.3 3.4 8.9 91 0.7 NW 35 48 19 26 1000.2 1000.0 0.6
30/11:30am 9.6 2.2 8.2 91 0.7 NW 37 56 20 30 1000.2 1000.0 0.6
30/11:24am 9.6 2.5 8.0 90 0.8 NW 35 56 19 30 1000.1 999.9 0.6
30/11:00am 9.6 3.2 8.7 94 0.4 NW 32 39 17 21 1000.1 999.9 0.6
30/10:30am 9.6 2.9 8.2 91 0.7 NW 33 43 18 23 1000.1 999.9 0.0
30/10:00am 9.8 2.5 7.4 85 1.2 NW 35 50 19 27 999.8 999.6 0.0
30/09:30am 10.6 3.9 7.3 80 1.6 NW 32 43 17 23 999.4 999.3 0.0
30/09:00am 10.2 4.2 7.1 81 1.5 NNW 28 39 15 21 999.4 999.3 0.4
30/08:30am 10.1 4.4 6.8 80 1.6 N 26 32 14 17 999.1 999.0 0.4
30/08:00am 9.8 4.4 6.3 79 1.7 N 24 30 13 16 998.8 998.7 0.2
30/07:30am 9.6 4.2 6.5 81 1.5 N 24 33 13 18 998.5 998.4 0.2
30/07:00am 9.2 3.8 6.5 83 1.3 N 24 35 13 19 998.4 998.3 0.2
30/06:30am 8.9 2.7 6.3 84 1.2 N 28 35 15 19 998.2 998.1 0.2
30/06:00am 9.9 3.6 5.9 76 1.9 NNW 28 37 15 20 997.9 997.8 0.2
30/05:30am 9.8 3.6 6.0 77 1.8 N 28 39 15 21 997.4 997.2 0.2
30/05:00am 9.5 3.6 5.9 78 1.7 N 26 33 14 18 997.5 997.3 0.2
30/04:30am 9.5 3.3 6.0 79 1.6 N 28 35 15 19 997.2 997.0 0.2
30/04:00am 9.4 3.2 6.3 81 1.5 N 28 37 15 20 997.4 997.2 0.2
30/03:30am 9.6 3.4 6.1 79 1.6 N 28 41 15 22 997.4 997.2 0.2
30/03:00am 9.4 4.1 6.7 83 1.3 NNW 24 33 13 18 997.5 997.3 0.2
30/02:30am 9.3 2.4 6.4 82 1.4 N 32 43 17 23 997.7 997.6 0.2
30/02:00am 10.2 3.2 5.8 74 2.1 N 32 46 17 25 997.9 997.8 0.0
30/01:30am 10.5 3.4 5.5 71 2.3 N 32 43 17 23 998.2 998.1 0.0
30/01:00am 10.9 4.5 5.2 68 2.7 N 28 44 15 24 998.5 998.4 0.0
30/12:30am 10.5 4.5 5.3 70 2.4 N 26 35 14 19 998.4 998.3 0.0
30/12:00am 9.6 4.7 5.2 74 2.0 N 20 26 11 14 998.7 998.6 0.0
 
Date/Time
EST
Temp
°C
App
Temp
°C
Dew
Point
°C
Rel
Hum
%
Delta-T
°C
Wind Press
QNH
hPa
Press
MSL
hPa
Rain since
9am
mm
Dir  Spd
km/h
Gust
km/h
Spd
kts
Gust
kts
29/11:30pm 9.3 4.6 5.1 75 1.9 N 19 22 10 12 999.1 999.0 0.0
29/11:00pm 9.5 4.6 5.1 74 2.0 N 20 28 11 15 999.1 999.0 0.0
29/10:30pm 7.7 3.7 4.7 81 1.3 NNE 15 19 8 10 999.3 999.2 0.0
29/10:00pm 9.8 5.3 4.2 68 2.5 N 17 22 9 12 999.5 999.4 0.0
29/09:30pm 11.4 6.4 4.4 62 3.2 NNW 20 32 11 17 999.5 999.4 0.0
29/09:00pm 11.6 7.1 4.3 61 3.4 NW 17 24 9 13 999.4 999.3 0.0
29/08:30pm 12.2 5.6 4.2 58 3.7 NW 28 39 15 21 999.2 999.1 0.0
29/08:00pm 12.8 6.3 4.5 57 3.9 NW 28 39 15 21 999.0 998.9 0.0
29/07:30pm 13.0 6.4 4.4 56 4.0 NW 28 37 15 20 998.6 998.5 0.0
29/07:00pm 13.0 7.7 4.9 58 3.8 NW 22 32 12 17 998.0 997.9 0.0
29/06:30pm 13.8 7.1 3.9 51 4.6 NW 28 37 15 20 997.5 997.3 0.0
29/06:00pm 14.4 7.3 3.5 48 5.0 NW 30 39 16 21 997.1 996.9 0.0
29/05:30pm 14.7 8.6 5.0 52 4.6 NW 26 37 14 20 996.8 996.6 0.0
29/05:00pm 15.1 9.0 5.0 51 4.8 NW 26 37 14 20 996.6 996.4 0.0
29/04:30pm 15.7 10.3 6.4 54 4.6 NW 24 33 13 18 996.3 996.1 0.0
29/04:00pm 16.2 10.0 6.1 51 5.0 NW 28 35 15 19 996.0 995.8 0.0
29/03:30pm 16.6 9.3 5.3 47 5.5 WNW 33 44 18 24 996.1 995.9 0.0
29/03:00pm 16.8 9.6 4.8 45 5.8 NW 32 44 17 24 995.9 995.7 0.0
29/02:45pm 17.3 10.7 6.2 48 5.5 NW 30 50 16 27 995.9 995.7 0.0
29/02:30pm 17.3 10.3 5.9 47 5.6 WNW 32 43 17 23 996.0 995.8 0.0
29/02:00pm 16.9 10.7 6.1 49 5.4 NW 28 39 15 21 996.3 996.1 0.0
29/01:30pm 16.3 10.9 8.0 58 4.2 NW 26 37 14 20 996.5 996.3 0.0
29/01:00pm 16.6 11.0 7.3 54 4.7 WNW 26 35 14 19 996.8 996.6 0.0
29/12:30pm 16.1 9.7 7.1 55 4.5 WNW 30 43 16 23 997.2 997.0 0.0
29/12:00pm 15.4 9.2 7.7 60 3.9 WNW 30 39 16 21 997.4 997.2 0.0
29/11:30am 14.4 9.4 8.1 66 3.2 WNW 24 35 13 19 997.6 997.4 0.0
29/11:00am 14.0 9.0 8.2 68 3.0 W 24 35 13 19 997.9 997.8 0.0
29/10:30am 13.6 8.9 9.1 74 2.3 WNW 24 35 13 19 998.2 998.1 0.0
29/10:00am 13.3 9.5 9.9 80 1.8 NW 20 28 11 15 998.5 998.4 0.0
29/09:30am 11.6 8.1 10.3 92 0.7 N 19 24 10 13 998.0 997.9 0.0
29/09:00am 10.7 7.0 9.5 92 0.6 NW 19 22 10 12 998.4 998.3 11.0
29/08:30am 10.6 7.8 10.0 96 0.3 WNW 15 20 8 11 998.1 998.0 11.0
29/08:00am 10.2 7.3 9.7 97 0.3 W 15 24 8 13 998.4 998.3 10.4
29/07:30am 10.8 4.3 10.2 96 0.3 WNW 35 50 19 27 998.0 997.9 9.2
29/07:22am 11.0 4.2 10.7 98 0.2 NNW 37 61 20 33 997.9 997.8 8.6
29/07:20am 11.7 5.5 11.5 99 0.1 N 35 61 19 33 997.9 997.8 7.2
29/07:00am 13.0 7.8 12.8 99 0.1 N 32 41 17 22 996.3 996.1 5.6
29/06:30am 12.7 7.2 12.5 99 0.1 N 33 46 18 25 996.4 996.2 5.2
29/06:00am 12.6 7.1 12.4 99 0.1 N 33 43 18 23 996.8 996.6 4.4
29/05:30am 12.5 6.6 12.3 99 0.1 N 35 44 19 24 997.1 996.9 4.4
29/05:04am 12.2 5.8 12.0 99 0.1 NNE 37 56 20 30 997.0 996.8 4.4
29/05:00am 12.2 5.8 12.0 99 0.1 N 37 50 20 27 997.1 996.9 4.4
29/04:30am 12.4 5.9 11.8 96 0.3 N 37 48 20 26 997.5 997.3 3.2
29/04:00am 13.0 7.8 11.6 91 0.8 N 30 44 16 24 997.8 997.7 2.8
29/03:30am 12.4 8.3 11.3 93 0.6 NNE 24 30 13 16 997.5 997.3 2.4
29/03:00am 12.4 9.4 10.6 89 1.0 N 17 24 9 13 998.9 998.8 1.8
29/02:30am 12.6 9.0 10.5 87 1.1 ENE 20 26 11 14 999.1 999.0 1.2
29/02:00am 12.5 9.3 9.9 84 1.4 NE 17 20 9 11 1000.4 1000.2 0.8
29/01:30am 12.9 9.5 9.2 78 1.9 N 17 19 9 10 1001.7 1001.6 0.0
29/01:00am 14.0 9.0 8.2 68 2.9 NNE 24 30 13 16 1001.4 1001.3 0.0
29/12:30am 14.3 8.5 7.8 65 3.3 NNE 28 35 15 19 1001.8 1001.7 0.0
29/12:00am 13.9 8.0 7.7 66 3.1 NE 28 35 15 19 1002.2 1002.1 0.0
 
Date/Time
EST
Temp
°C
App
Temp
°C
Dew
Point
°C
Rel
Hum
%
Delta-T
°C
Wind Press
QNH
hPa
Press
MSL
hPa
Rain since
9am
mm
Dir  Spd
km/h
Gust
km/h
Spd
kts
Gust
kts
28/11:30pm 13.8 8.4 8.0 68 2.9 NE 26 37 14 20 1003.1 1003.0 0.0
28/11:00pm 12.8 8.0 8.7 76 2.1 NNE 24 33 13 18 1004.1 1004.0 0.0
28/10:30pm 10.1 8.1 8.5 90 0.8 NNE 9 13 5 7 1005.1 1005.0 0.0
28/10:00pm 8.9 7.1 7.8 93 0.5 NNE 7 9 4 5 1005.7 1005.6 0.0
28/09:30pm 9.2 6.3 8.0 92 0.6 NNE 13 15 7 8 1006.0 1005.9 0.0
28/09:00pm 9.5 6.2 8.1 91 0.7 N 15 17 8 9 1006.7 1006.6 0.0
28/08:30pm 11.0 9.3 8.4 84 1.3 NE 7 9 4 5 1006.7 1006.6 0.0
28/08:00pm 10.9 7.0 8.8 87 1.1 ENE 19 19 10 10 1005.9 1005.8 0.0
28/07:30pm 11.0 8.0 9.4 90 0.8 NE 15 17 8 9 1006.9 1006.8 0.0
28/07:00pm 11.8 9.2 9.5 86 1.2 NNE 13 15 7 8 1007.2 1007.1 0.0

Other Formats:

Comma delimited format used in spreadsheet applications
http://www.bom.gov.au/fwo/IDN60801/IDN60801.94715.axf

JavaScript Object Notation format (JSON) in row-major order
http://www.bom.gov.au/fwo/IDN60801/IDN60801.94715.json